createdAt,value
2016-06-17T00:00:39.744Z,83.47
2016-06-17T00:01:39.686Z,83.47
2016-06-17T00:02:39.673Z,83.18
2016-06-17T00:03:39.661Z,83.18
2016-06-17T00:04:39.493Z,83.27
2016-06-17T00:05:39.684Z,83.27
2016-06-17T00:06:39.578Z,83.18
2016-06-17T00:07:39.565Z,83.18
2016-06-17T00:08:39.538Z,83.18
2016-06-17T00:09:39.541Z,83.56
2016-06-17T00:10:39.514Z,83.08
2016-06-17T00:11:39.485Z,83.27
2016-06-17T00:12:39.474Z,83.37
2016-06-17T00:13:39.446Z,83.18
2016-06-17T00:14:39.245Z,83.47
2016-06-17T00:15:39.437Z,83.18
2016-06-17T00:16:39.394Z,83.37
2016-06-17T00:17:39.350Z,83.47
2016-06-17T00:18:39.447Z,83.47
2016-06-17T00:19:39.326Z,83.27
2016-06-17T00:20:39.298Z,83.56
2016-06-17T00:21:39.130Z,83.75
2016-06-17T00:22:39.242Z,84.04
2016-06-17T00:23:39.059Z,83.47
2016-06-17T00:24:39.202Z,83.37
2016-06-17T00:25:39.206Z,83.94
2016-06-17T00:26:39.178Z,83.85
2016-06-17T00:27:39.166Z,83.75
2016-06-17T00:28:39.123Z,83.75
2016-06-17T00:29:39.204Z,83.85
2016-06-17T00:30:39.098Z,83.75
2016-06-17T00:31:39.054Z,83.75
2016-06-17T00:32:39.043Z,83.75
2016-06-17T00:33:39.015Z,83.85
2016-06-17T00:34:38.987Z,83.75
2016-06-17T00:35:38.975Z,83.85
2016-06-17T00:36:38.869Z,83.75
2016-06-17T00:37:38.919Z,83.65
2016-06-17T00:38:38.908Z,83.75
2016-06-17T00:39:38.895Z,83.75
2016-06-17T00:40:38.992Z,83.94
2016-06-17T00:41:38.886Z,83.47
2016-06-17T00:42:38.828Z,83.94
2016-06-17T00:43:38.800Z,83.52
2016-06-17T00:44:38.787Z,83.37
2016-06-17T00:45:38.759Z,83.75
2016-06-17T00:46:38.747Z,83.85
2016-06-17T00:47:38.923Z,83.71
2016-06-17T00:48:38.723Z,84.04
2016-06-17T00:49:38.710Z,83.94
2016-06-17T00:50:38.651Z,84.04
2016-06-17T00:51:38.466Z,83.85
2016-06-17T00:52:39.000Z,84.14
2016-06-17T00:53:38.597Z,83.81
2016-06-17T00:54:38.569Z,83.56
2016-06-17T00:55:38.541Z,83.75
2016-06-17T00:56:38.528Z,83.75
2016-06-17T00:57:38.516Z,83.65
2016-06-17T00:58:38.598Z,83.65
2016-06-17T00:59:38.461Z,83.71
2016-06-17T01:00:38.448Z,83.85
2016-06-17T01:01:38.545Z,83.71
2016-06-17T01:02:38.533Z,83.94
2016-06-17T01:03:38.458Z,83.85
2016-06-17T01:04:38.352Z,83.91
2016-06-17T01:05:38.325Z,83.71
2016-06-17T01:06:38.344Z,84.28
2016-06-17T01:07:38.285Z,84.04
2016-06-17T01:08:38.476Z,84.28
2016-06-17T01:09:38.261Z,83.85
2016-06-17T01:10:38.373Z,83.91
2016-06-17T01:11:38.205Z,83.91
2016-06-17T01:12:38.036Z,84.28
2016-06-17T01:13:38.164Z,84.09
2016-06-17T01:14:38.153Z,84.04
2016-06-17T01:15:37.953Z,84.19
2016-06-17T01:16:38.128Z,84.09
2016-06-17T01:17:38.194Z,84.09
2016-06-17T01:18:38.057Z,84.23
2016-06-17T01:19:38.045Z,84
2016-06-17T01:20:38.095Z,83.94
2016-06-17T01:21:38.006Z,84.09
2016-06-17T01:22:37.976Z,84
2016-06-17T01:23:38.153Z,84.23
2016-06-17T01:24:38.077Z,84.09
2016-06-17T01:25:37.925Z,84
2016-06-17T01:26:38.054Z,84.09
2016-06-17T01:27:37.869Z,84.14
2016-06-17T01:28:37.841Z,84
2016-06-17T01:29:37.830Z,84
2016-06-17T01:30:37.817Z,84.23
2016-06-17T01:31:37.790Z,84.04
2016-06-17T01:32:37.778Z,84
2016-06-17T01:33:37.764Z,84.14
2016-06-17T01:34:37.737Z,84
2016-06-17T01:35:37.694Z,84.19
2016-06-17T01:36:37.792Z,84.28
2016-06-17T01:37:37.670Z,84.09
2016-06-17T01:38:37.643Z,84.19
2016-06-17T01:39:37.723Z,84.09
2016-06-17T01:40:37.586Z,84.33
2016-06-17T01:41:37.700Z,84.48
2016-06-17T01:42:37.578Z,84.38
2016-06-17T01:43:37.535Z,84
2016-06-17T01:44:37.507Z,84
2016-06-17T01:45:37.322Z,84.09
2016-06-17T01:46:37.467Z,84.19
2016-06-17T01:47:37.455Z,84.09
2016-06-17T01:48:37.613Z,84.09
2016-06-17T01:49:37.399Z,84.09
2016-06-17T01:50:37.371Z,84
2016-06-17T01:51:37.359Z,84.09
2016-06-17T01:52:37.331Z,84.28
2016-06-17T01:53:37.256Z,84.19
2016-06-17T01:54:37.462Z,84.28
2016-06-17T01:55:37.263Z,84.09
2016-06-17T01:56:37.238Z,84.48
2016-06-17T01:57:37.227Z,84.09
2016-06-17T01:58:37.200Z,84
2016-06-17T01:59:37.221Z,83.91
2016-06-17T02:00:37.179Z,84
2016-06-17T02:01:37.214Z,83.91
2016-06-17T02:02:37.124Z,84
2016-06-17T02:03:37.113Z,84
2016-06-17T02:04:37.131Z,84.23
2016-06-17T02:05:37.073Z,84.09
2016-06-17T02:06:37.202Z,84.33
2016-06-17T02:07:37.034Z,84.48
2016-06-17T02:08:37.007Z,84.23
2016-06-17T02:09:36.994Z,84.14
2016-06-17T02:10:36.967Z,84.09
2016-06-17T02:11:36.940Z,84.33
2016-06-17T02:12:36.928Z,83.81
2016-06-17T02:13:36.961Z,83.94
2016-06-17T02:14:36.887Z,83.91
2016-06-17T02:15:36.859Z,84.19
2016-06-17T02:16:36.957Z,84.19
2016-06-17T02:17:36.820Z,84.28
2016-06-17T02:18:36.807Z,84.09
2016-06-17T02:19:36.779Z,84.09
2016-06-17T02:20:36.768Z,84.09
2016-06-17T02:21:37.006Z,84.14
2016-06-17T02:22:36.852Z,84.09
2016-06-17T02:23:36.715Z,83.91
2016-06-17T02:24:36.907Z,83.91
2016-06-17T02:25:37.410Z,84.14
2016-06-17T02:26:36.710Z,84.14
2016-06-17T02:27:36.839Z,83.91
2016-06-17T02:28:36.513Z,84.14
2016-06-17T02:29:36.424Z,84.23
2016-06-17T02:30:36.381Z,84.04
2016-06-17T02:31:36.524Z,84.09
2016-06-17T02:32:36.513Z,83.94
2016-06-17T02:33:36.343Z,83.91
2016-06-17T02:34:36.456Z,83.91
2016-06-17T02:35:36.445Z,84.09
2016-06-17T02:36:36.402Z,84.19
2016-06-17T02:37:36.404Z,84.09
2016-06-17T02:38:36.455Z,84.19
2016-06-17T02:39:36.490Z,84.77
2016-06-17T02:40:36.337Z,84.28
2016-06-17T02:41:36.153Z,84.67
2016-06-17T02:42:36.281Z,84.67
2016-06-17T02:43:36.253Z,84.67
2016-06-17T02:44:36.226Z,84.67
2016-06-17T02:45:36.323Z,84.67
2016-06-17T02:46:36.217Z,84.67
2016-06-17T02:47:36.204Z,84.58
2016-06-17T02:48:36.161Z,84.77
2016-06-17T02:49:36.133Z,84.77
2016-06-17T02:50:36.122Z,84.86
2016-06-17T02:51:36.093Z,84.67
2016-06-17T02:52:36.049Z,84.48
2016-06-17T02:53:36.069Z,84.48
2016-06-17T02:54:36.370Z,84.48
2016-06-17T02:55:35.998Z,84.67
2016-06-17T02:56:35.985Z,84.67
2016-06-17T02:57:35.974Z,84.67
2016-06-17T02:58:35.945Z,84.67
2016-06-17T02:59:35.918Z,84.86
2016-06-17T03:00:35.937Z,84.58
2016-06-17T03:01:35.894Z,84.28
2016-06-17T03:02:35.881Z,84.67
2016-06-17T03:03:35.838Z,84.38
2016-06-17T03:04:35.826Z,84.28
2016-06-17T03:05:35.783Z,84.67
2016-06-17T03:06:35.786Z,84.38
2016-06-17T03:07:35.758Z,84.38
2016-06-17T03:08:35.840Z,84.38
2016-06-17T03:09:35.749Z,84.38
2016-06-17T03:10:35.691Z,84.67
2016-06-17T03:11:35.678Z,84.67
2016-06-17T03:12:35.635Z,84.38
2016-06-17T03:13:35.654Z,84.58
2016-06-17T03:14:35.595Z,84.67
2016-06-17T03:15:35.692Z,84.38
2016-06-17T03:16:35.587Z,84.67
2016-06-17T03:17:35.558Z,84.67
2016-06-17T03:18:35.358Z,84.48
2016-06-17T03:19:35.487Z,84.58
2016-06-17T03:20:35.490Z,84.58
2016-06-17T03:21:35.447Z,84.67
2016-06-17T03:22:35.436Z,84.86
2016-06-17T03:23:35.517Z,84.67
2016-06-17T03:24:35.395Z,84.67
2016-06-17T03:25:35.383Z,84.77
2016-06-17T03:26:35.355Z,84.38
2016-06-17T03:27:35.328Z,84.28
2016-06-17T03:28:35.315Z,84.86
2016-06-17T03:29:35.350Z,84.38
2016-06-17T03:30:35.260Z,84.38
2016-06-17T03:31:35.091Z,84.67
2016-06-17T03:32:35.220Z,84.67
2016-06-17T03:33:35.207Z,84.67
2016-06-17T03:34:35.023Z,84.38
2016-06-17T03:35:35.168Z,84.38
2016-06-17T03:36:35.014Z,84.38
2016-06-17T03:37:34.987Z,84.67
2016-06-17T03:38:35.084Z,84.67
2016-06-17T03:39:35.057Z,84.67
2016-06-17T03:40:35.044Z,84.28
2016-06-17T03:41:35.204Z,84.86
2016-06-17T03:42:34.988Z,84.67
2016-06-17T03:43:34.976Z,84.58
2016-06-17T03:44:35.074Z,84.67
2016-06-17T03:45:34.937Z,84.67
2016-06-17T03:46:34.941Z,84.67
2016-06-17T03:47:34.897Z,84.67
2016-06-17T03:48:34.885Z,84.67
2016-06-17T03:49:34.856Z,84.58
2016-06-17T03:50:34.829Z,84.86
2016-06-17T03:51:34.817Z,84.67
2016-06-17T03:52:34.773Z,84.67
2016-06-17T03:53:34.621Z,84.67
2016-06-17T03:54:34.749Z,84.58
2016-06-17T03:55:34.721Z,84.28
2016-06-17T03:56:34.725Z,84.38
2016-06-17T03:57:34.713Z,84.67
2016-06-17T03:58:34.857Z,84.48
2016-06-17T03:59:34.641Z,84.48
2016-06-17T04:00:34.629Z,84.48
2016-06-17T04:01:34.617Z,84.67
2016-06-17T04:02:34.574Z,84.67
2016-06-17T04:03:34.561Z,84.38
2016-06-17T04:04:34.533Z,84.38
2016-06-17T04:05:34.506Z,84.67
2016-06-17T04:06:34.494Z,84.67
2016-06-17T04:07:34.466Z,84.48
2016-06-17T04:08:34.437Z,84.48
2016-06-17T04:09:34.426Z,84.48
2016-06-17T04:10:34.413Z,84.67
2016-06-17T04:11:34.402Z,84.67
2016-06-17T04:12:34.267Z,84.38
2016-06-17T04:13:34.305Z,84.67
2016-06-17T04:14:34.328Z,84.67
2016-06-17T04:15:34.319Z,84.67
2016-06-17T04:16:34.138Z,84.28
2016-06-17T04:17:34.112Z,84.48
2016-06-17T04:18:34.257Z,84.28
2016-06-17T04:19:34.231Z,84.48
2016-06-17T04:20:34.204Z,84.48
2016-06-17T04:21:34.193Z,84.38
2016-06-17T04:22:34.167Z,84.67
2016-06-17T04:23:34.263Z,84.48
2016-06-17T04:24:34.127Z,84.48
2016-06-17T04:25:34.178Z,84.48
2016-06-17T04:26:34.087Z,84.38
2016-06-17T04:27:33.919Z,84.48
2016-06-17T04:28:34.064Z,84.95
2016-06-17T04:29:34.021Z,84.48
2016-06-17T04:30:34.009Z,84.95
2016-06-17T04:31:34.028Z,84.28
2016-06-17T04:32:34.002Z,84.77
2016-06-17T04:33:33.941Z,84.86
2016-06-17T04:34:33.914Z,84.77
2016-06-17T04:35:33.887Z,84.77
2016-06-17T04:36:33.875Z,84.48
2016-06-17T04:37:33.846Z,84.48
2016-06-17T04:38:33.959Z,84.48
2016-06-17T04:39:33.837Z,84.48
2016-06-17T04:40:33.794Z,84.48
2016-06-17T04:41:33.767Z,84.48
2016-06-17T04:42:33.769Z,84.48
2016-06-17T04:43:33.726Z,84.67
2016-06-17T04:44:33.698Z,84.67
2016-06-17T04:45:33.672Z,84.77
2016-06-17T04:46:33.503Z,84.48
2016-06-17T04:47:33.663Z,84.28
2016-06-17T04:48:33.618Z,84.67
2016-06-17T04:49:33.591Z,84.28
2016-06-17T04:50:33.688Z,84.67
2016-06-17T04:51:33.567Z,84.28
2016-06-17T04:52:33.539Z,84.61
2016-06-17T04:53:33.511Z,84.67
2016-06-17T04:54:33.514Z,84.48
2016-06-17T04:55:33.487Z,84.52
2016-06-17T04:56:33.475Z,84.77
2016-06-17T04:57:33.447Z,84.61
2016-06-17T04:58:33.451Z,84.58
2016-06-17T04:59:33.422Z,84.09
2016-06-17T05:00:33.363Z,84.71
2016-06-17T05:01:33.383Z,84.19
2016-06-17T05:02:33.323Z,83.94
2016-06-17T05:03:33.359Z,84.23
2016-06-17T05:04:33.158Z,84.23
2016-06-17T05:05:33.271Z,84.04
2016-06-17T05:06:33.275Z,83.94
2016-06-17T05:07:33.060Z,84.04
2016-06-17T05:08:33.188Z,84.14
2016-06-17T05:09:33.192Z,83.94
2016-06-17T05:10:33.147Z,83.85
2016-06-17T05:11:33.120Z,84.14
2016-06-17T05:12:33.155Z,84.14
2016-06-17T05:13:33.096Z,83.94
2016-06-17T05:14:32.928Z,84.42
2016-06-17T05:15:33.040Z,84.42
2016-06-17T05:16:33.012Z,84.04
2016-06-17T05:17:33.016Z,84.42
2016-06-17T05:18:32.894Z,84.14
2016-06-17T05:19:32.960Z,83.94
2016-06-17T05:20:32.933Z,83.75
2016-06-17T05:21:32.920Z,83.65
2016-06-17T05:22:32.892Z,83.56
2016-06-17T05:23:32.895Z,83.37
2016-06-17T05:24:32.868Z,83.18
2016-06-17T05:25:32.841Z,83.37
2016-06-17T05:26:32.828Z,83.56
2016-06-17T05:27:32.848Z,83.27
2016-06-17T05:28:32.773Z,83.27
2016-06-17T05:29:32.652Z,83.37
2016-06-17T05:30:32.717Z,82.93
2016-06-17T05:31:32.752Z,82.84
2016-06-17T05:32:32.709Z,82.74
2016-06-17T05:33:32.649Z,82.74
2016-06-17T05:34:32.716Z,82.93
2016-06-17T05:35:32.640Z,82.93
2016-06-17T05:36:32.598Z,82.74
2016-06-17T05:37:32.601Z,82.74
2016-06-17T05:38:32.401Z,82.84
2016-06-17T05:39:32.529Z,82.74
2016-06-17T05:40:32.407Z,82.45
2016-06-17T05:41:32.490Z,82.74
2016-06-17T05:42:32.461Z,82.74
2016-06-17T05:43:32.840Z,82.07
2016-06-17T05:44:32.531Z,82.54
2016-06-17T05:45:32.425Z,82.45
2016-06-17T05:46:32.382Z,82.26
2016-06-17T05:47:32.370Z,82.07
2016-06-17T05:48:32.217Z,81.97
2016-06-17T05:49:32.393Z,82.54
2016-06-17T05:50:32.317Z,82.54
2016-06-17T05:51:32.274Z,82.74
2016-06-17T05:52:32.309Z,82.74
2016-06-17T05:53:32.249Z,82.64
2016-06-17T05:54:32.347Z,82.35
2016-06-17T05:55:32.209Z,82.07
2016-06-17T05:56:32.182Z,82.16
2016-06-17T05:57:32.201Z,81.92
2016-06-17T05:58:32.157Z,81.97
2016-06-17T05:59:32.115Z,82.1
2016-06-17T06:00:32.180Z,82.07
2016-06-17T06:01:32.090Z,82.01
2016-06-17T06:02:32.047Z,82.07
2016-06-17T06:03:32.034Z,81.97
2016-06-17T06:04:32.022Z,82.26
2016-06-17T06:05:32.009Z,82.16
2016-06-17T06:06:31.982Z,81.97
2016-06-17T06:07:31.955Z,82.07
2016-06-17T06:08:32.021Z,82.07
2016-06-17T06:09:32.039Z,82.16
2016-06-17T06:10:31.886Z,82.16
2016-06-17T06:11:31.889Z,82.35
2016-06-17T06:12:31.878Z,82.35
2016-06-17T06:13:31.835Z,82.16
2016-06-17T06:14:31.947Z,82.74
2016-06-17T06:15:31.982Z,82.93
2016-06-17T06:16:31.626Z,82.84
2016-06-17T06:17:31.754Z,82.74
2016-06-17T06:18:31.774Z,82.64
2016-06-17T06:19:31.731Z,82.16
2016-06-17T06:20:31.670Z,82.26
2016-06-17T06:21:31.675Z,82.64
2016-06-17T06:22:31.631Z,82.54
2016-06-17T06:23:31.619Z,82.26
2016-06-17T06:24:31.592Z,82.26
2016-06-17T06:25:31.563Z,82.07
2016-06-17T06:26:31.552Z,82.54
2016-06-17T06:27:31.539Z,82.26
2016-06-17T06:28:31.512Z,83.03
2016-06-17T06:29:31.614Z,82.45
2016-06-17T06:30:31.466Z,82.54
2016-06-17T06:31:31.474Z,82.64
2016-06-17T06:32:31.593Z,82.16
2016-06-17T06:33:31.257Z,81.97
2016-06-17T06:34:31.403Z,82.35
2016-06-17T06:35:31.392Z,82.26
2016-06-17T06:36:31.366Z,82.07
2016-06-17T06:37:31.479Z,82.35
2016-06-17T06:38:31.329Z,82.54
2016-06-17T06:39:31.302Z,82.16
2016-06-17T06:40:31.307Z,82.07
2016-06-17T06:41:31.278Z,81.78
2016-06-17T06:42:31.252Z,82.35
2016-06-17T06:43:31.241Z,82.54
2016-06-17T06:44:31.212Z,82.35
2016-06-17T06:45:31.185Z,82.26
2016-06-17T06:46:31.188Z,82.45
2016-06-17T06:47:44.958Z,82.54
2016-06-17T06:48:31.148Z,82.07
2016-06-17T06:49:31.120Z,82.16
2016-06-17T06:50:31.093Z,81.68
2016-06-17T06:51:31.064Z,81.3
2016-06-17T06:52:31.240Z,81.59
2016-06-17T06:53:31.041Z,81.4
2016-06-17T06:54:30.997Z,81.2
2016-06-17T06:55:31.111Z,81.4
2016-06-17T06:56:30.956Z,81.3
2016-06-17T06:57:30.914Z,81.49
2016-06-17T06:58:30.918Z,81.2
2016-06-17T06:59:30.905Z,81.2
2016-06-17T07:00:30.893Z,81.59
2016-06-17T07:01:30.849Z,81.4
2016-06-17T07:02:30.821Z,81.49
2016-06-17T07:03:30.902Z,81.53
2016-06-17T07:04:30.813Z,81.72
2016-06-17T07:05:30.770Z,81.2
2016-06-17T07:06:30.602Z,81.3
2016-06-17T07:07:30.713Z,81.3
2016-06-17T07:08:30.717Z,81.49
2016-06-17T07:09:30.705Z,81.4
2016-06-17T07:10:30.662Z,81.4
2016-06-17T07:11:30.650Z,81.2
2016-06-17T07:12:30.622Z,81.3
2016-06-17T07:13:30.626Z,81.3
2016-06-17T07:14:30.582Z,81.4
2016-06-17T07:15:30.554Z,81.4
2016-06-17T07:16:30.542Z,81.78
2016-06-17T07:17:30.530Z,81.59
2016-06-17T07:18:30.501Z,81.78
2016-06-17T07:19:30.491Z,81.4
2016-06-17T07:20:30.446Z,81.2
2016-06-17T07:21:30.481Z,81.05
2016-06-17T07:22:30.407Z,80.86
2016-06-17T07:23:30.395Z,80.57
2016-06-17T07:24:30.367Z,80.66
2016-06-17T07:25:30.557Z,80.76
2016-06-17T07:26:30.310Z,80.66
2016-06-17T07:27:30.283Z,80.96
2016-06-17T07:28:30.287Z,81.15
2016-06-17T07:29:30.289Z,80.47
2016-06-17T07:30:30.247Z,80.28
2016-06-17T07:31:32.546Z,80.09
2016-06-17T07:32:30.300Z,79.99
2016-06-17T07:33:30.179Z,79.52
2016-06-17T07:34:43.980Z,79.71
2016-06-17T07:35:30.139Z,80.22
2016-06-17T07:36:30.111Z,79.55
2016-06-17T07:37:30.427Z,79.99
2016-06-17T07:38:30.071Z,79.8
2016-06-17T07:39:30.059Z,79.65
2016-06-17T07:40:30.047Z,80.09
2016-06-17T07:41:30.035Z,79.75
2016-06-17T07:42:30.162Z,79.71
2016-06-17T07:43:29.963Z,79.75
2016-06-17T07:44:29.952Z,79.52
2016-06-17T07:45:30.048Z,79.9
2016-06-17T07:46:29.927Z,79.52
2016-06-17T07:47:29.790Z,80.09
2016-06-17T07:48:29.856Z,80.19
2016-06-17T07:49:29.828Z,79.8
2016-06-17T07:50:29.815Z,79.9
2016-06-17T07:51:29.882Z,79.9
2016-06-17T07:52:29.620Z,79.42
2016-06-17T07:53:29.764Z,79.52
2016-06-17T07:54:29.751Z,79.52
2016-06-17T07:55:29.724Z,79.9
2016-06-17T07:56:29.821Z,79.9
2016-06-17T07:57:29.793Z,79.71
2016-06-17T07:58:29.671Z,80.09
2016-06-17T07:59:29.660Z,79.52
